createdAt,value
2023-09-27T00:02:27.999Z,15.18
2023-09-27T00:07:30.957Z,15.06
2023-09-27T00:12:35.298Z,15.08
2023-09-27T00:17:38.850Z,15.12
2023-09-27T00:22:41.983Z,14.97
2023-09-27T00:27:46.576Z,14.94
2023-09-27T00:32:49.541Z,14.95
2023-09-27T00:37:53.222Z,14.86
2023-09-27T00:42:57.545Z,14.83
2023-09-27T00:48:00.493Z,14.76
2023-09-27T00:53:04.289Z,14.80
2023-09-27T00:58:08.621Z,14.79
2023-09-27T01:03:12.127Z,14.71
2023-09-27T01:08:15.071Z,14.70
2023-09-27T01:13:20.020Z,14.58
2023-09-27T01:18:22.962Z,14.50
2023-09-27T01:23:27.186Z,14.41
2023-09-27T01:28:31.895Z,14.32
2023-09-27T01:33:34.766Z,14.34
2023-09-27T01:38:39.180Z,14.14
2023-09-27T01:43:41.962Z,14.19
2023-09-27T01:48:44.758Z,14.04
2023-09-27T01:53:48.890Z,14.05
2023-09-27T01:58:51.975Z,13.98
2023-09-27T02:03:55.913Z,13.94
2023-09-27T02:09:00.204Z,13.91
2023-09-27T02:14:05.198Z,13.91
2023-09-27T02:19:08.553Z,13.77
2023-09-27T02:24:13.049Z,13.71
2023-09-27T02:29:16.690Z,13.77
2023-09-27T02:34:20.589Z,13.74
2023-09-27T02:39:26.491Z,13.63
2023-09-27T02:44:29.494Z,13.63
2023-09-27T02:49:32.466Z,13.56
2023-09-27T02:54:36.713Z,13.53
2023-09-27T02:59:39.523Z,13.46
2023-09-27T03:04:42.587Z,13.50
2023-09-27T03:09:48.750Z,13.50
2023-09-27T03:14:51.896Z,13.43
2023-09-27T03:19:55.193Z,13.37
2023-09-27T03:25:00.069Z,13.36
2023-09-27T03:30:02.938Z,13.30
2023-09-27T03:35:08.625Z,13.25
2023-09-27T03:40:15.122Z,13.05
2023-09-27T03:45:18.664Z,12.96
2023-09-27T03:50:23.780Z,12.97
2023-09-27T03:55:28.482Z,12.89
2023-09-27T04:00:31.327Z,12.90
2023-09-27T04:05:34.523Z,12.87
2023-09-27T04:10:38.764Z,12.89
2023-09-27T04:15:41.631Z,12.92
2023-09-27T04:20:44.539Z,12.82
2023-09-27T04:25:48.752Z,12.75
2023-09-27T04:30:51.544Z,12.73
2023-09-27T04:35:54.387Z,12.63
2023-09-27T04:40:58.545Z,12.67
2023-09-27T04:46:01.451Z,12.61
2023-09-27T04:51:04.768Z,12.65
2023-09-27T04:56:12.477Z,12.67
2023-09-27T05:01:15.467Z,12.67
2023-09-27T05:06:18.313Z,12.54
2023-09-27T05:11:23.403Z,12.59
2023-09-27T05:16:26.276Z,12.49
2023-09-27T05:21:29.182Z,12.60
2023-09-27T05:26:34.051Z,12.53
2023-09-27T05:31:37.041Z,12.54
2023-09-27T05:36:41.654Z,12.59
2023-09-27T05:41:45.819Z,12.55
2023-09-27T05:46:49.686Z,12.65
2023-09-27T05:51:53.456Z,12.66
2023-09-27T05:56:57.613Z,12.71
2023-09-27T06:02:01.168Z,12.78
2023-09-27T06:07:05.177Z,12.81
2023-09-27T06:12:09.884Z,12.94
2023-09-27T06:17:17.173Z,13.05
2023-09-27T06:22:23.904Z,13.19
2023-09-27T06:27:28.582Z,13.31
2023-09-27T06:32:31.957Z,13.40
2023-09-27T06:37:34.926Z,13.53
2023-09-27T06:42:39.459Z,13.61
2023-09-27T06:47:43.402Z,13.71
2023-09-27T06:52:46.972Z,13.68
2023-09-27T06:57:53.334Z,13.84
2023-09-27T07:02:56.680Z,13.78
2023-09-27T07:07:59.601Z,14.06
2023-09-27T07:13:03.849Z,14.16
2023-09-27T07:18:07.142Z,14.28
2023-09-27T07:23:15.848Z,14.65
2023-09-27T07:28:20.179Z,14.60
2023-09-27T07:33:23.017Z,15.02
2023-09-27T07:38:25.865Z,15.21
2023-09-27T07:43:30.334Z,15.41
2023-09-27T07:48:33.451Z,15.37
2023-09-27T07:53:36.368Z,15.58
2023-09-27T07:58:42.946Z,15.85
2023-09-27T08:03:47.131Z,16.03
2023-09-27T08:08:53.003Z,16.11
2023-09-27T08:13:57.442Z,16.16
2023-09-27T08:19:00.424Z,16.15
2023-09-27T08:24:03.357Z,16.50
2023-09-27T08:29:08.942Z,16.76
2023-09-27T08:34:11.837Z,16.88
2023-09-27T08:39:15.768Z,16.75
2023-09-27T08:44:20.151Z,16.52
2023-09-27T08:49:23.158Z,16.61
2023-09-27T08:54:26.268Z,16.56
2023-09-27T08:59:30.562Z,16.63
2023-09-27T09:04:34.359Z,16.74
2023-09-27T09:09:37.162Z,16.80
2023-09-27T09:14:44.192Z,16.87
2023-09-27T09:20:16.257Z,16.91
2023-09-27T09:25:19.192Z,17.02
2023-09-27T09:30:35.579Z,17.19
2023-09-27T09:35:39.336Z,17.45
2023-09-27T09:40:55.307Z,17.62
2023-09-27T09:46:00.466Z,17.74
2023-09-27T09:51:08.763Z,17.84
2023-09-27T10:01:23.177Z,17.83
2023-09-27T10:06:41.443Z,17.87
2023-09-27T10:11:49.883Z,18.13
2023-09-27T10:16:54.916Z,18.10
2023-09-27T10:22:06.675Z,18.43
2023-09-27T10:27:09.844Z,18.53
2023-09-27T10:32:23.866Z,18.67
2023-09-27T10:37:58.623Z,19.18
2023-09-27T10:43:01.537Z,19.24
2023-09-27T10:48:24.439Z,19.50
2023-09-27T10:53:27.896Z,19.52
2023-09-27T10:58:30.882Z,19.51
2023-09-27T11:03:35.449Z,19.87
2023-09-27T11:08:38.543Z,19.94
2023-09-27T11:13:43.152Z,20.29
2023-09-27T11:18:49.889Z,20.50
2023-09-27T11:23:53.480Z,20.39
2023-09-27T11:29:00.247Z,20.94
2023-09-27T11:34:15.847Z,20.94
2023-09-27T11:39:20.166Z,21.11
2023-09-27T11:44:24.633Z,20.96
2023-09-27T11:49:28.874Z,21.48
2023-09-27T11:54:31.748Z,21.72
2023-09-27T11:59:34.579Z,21.89
2023-09-27T12:04:38.919Z,22.17
2023-09-27T12:09:41.773Z,22.21
2023-09-27T12:14:44.740Z,22.43
2023-09-27T12:19:49.066Z,22.24
2023-09-27T12:24:51.846Z,22.52
2023-09-27T12:29:55.002Z,22.47
2023-09-27T12:35:00.275Z,22.42
2023-09-27T12:40:03.935Z,22.37
2023-09-27T12:45:08.214Z,22.46
2023-09-27T12:50:12.609Z,22.51
2023-09-27T12:55:15.572Z,22.46
2023-09-27T13:00:18.852Z,22.68
2023-09-27T13:05:23.303Z,22.43
2023-09-27T13:10:26.681Z,22.38
2023-09-27T13:15:29.488Z,22.47
2023-09-27T13:20:35.968Z,22.35
2023-09-27T13:25:38.833Z,22.29
2023-09-27T13:30:41.654Z,22.49
2023-09-27T13:35:45.841Z,22.63
2023-09-27T13:40:50.054Z,22.65
2023-09-27T13:45:53.981Z,22.70
2023-09-27T13:50:58.213Z,22.77
2023-09-27T13:56:01.075Z,22.68
2023-09-27T14:01:04.338Z,22.69
2023-09-27T14:06:09.060Z,22.64
2023-09-27T14:11:15.127Z,22.71
2023-09-27T14:16:18.520Z,22.77
2023-09-27T14:21:22.876Z,22.80
2023-09-27T14:26:26.444Z,22.66
2023-09-27T14:31:29.695Z,22.73
2023-09-27T14:36:35.608Z,22.69
2023-09-27T14:41:38.448Z,22.67
2023-09-27T14:46:41.484Z,22.74
2023-09-27T14:51:46.606Z,22.72
2023-09-27T14:56:49.378Z,22.71
2023-09-27T15:01:58.389Z,22.70
2023-09-27T15:07:02.686Z,22.68
2023-09-27T15:12:05.757Z,22.63
2023-09-27T15:17:09.071Z,22.57
2023-09-27T15:22:13.757Z,22.37
2023-09-27T15:27:16.551Z,22.30
2023-09-27T15:32:19.363Z,22.27
2023-09-27T15:37:23.563Z,22.15
2023-09-27T15:42:26.432Z,22.13
2023-09-27T15:47:29.264Z,22.17
2023-09-27T15:52:35.442Z,22.10
2023-09-27T15:57:38.982Z,22.12
2023-09-27T16:02:41.974Z,22.08
2023-09-27T16:07:46.175Z,22.08
2023-09-27T16:12:49.762Z,21.97
2023-09-27T16:17:52.603Z,21.90
2023-09-27T16:22:56.809Z,21.79
2023-09-27T16:27:59.666Z,21.72
2023-09-27T16:33:03.486Z,21.63
2023-09-27T16:38:09.325Z,21.49
2023-09-27T16:43:12.242Z,21.38
2023-09-27T16:48:15.079Z,21.32
2023-09-27T16:53:19.239Z,21.22
2023-09-27T16:58:22.950Z,21.09
2023-09-27T17:03:25.807Z,20.91
2023-09-27T17:08:29.996Z,20.80
2023-09-27T17:13:32.968Z,20.67
2023-09-27T17:18:35.697Z,20.60
2023-09-27T17:23:39.795Z,20.55
2023-09-27T17:28:42.602Z,20.47
2023-09-27T17:33:45.811Z,20.35
2023-09-27T17:38:50.160Z,20.23
2023-09-27T17:43:53.254Z,19.89
2023-09-27T17:48:56.897Z,19.75
2023-09-27T17:54:01.344Z,19.79
2023-09-27T17:59:04.441Z,19.69
2023-09-27T18:04:07.804Z,19.54
2023-09-27T18:09:12.340Z,19.51
2023-09-27T18:14:15.189Z,19.40
2023-09-27T18:19:18.894Z,19.28
2023-09-27T18:24:23.287Z,19.09
2023-09-27T18:29:26.293Z,18.87
2023-09-27T18:34:29.118Z,18.92
2023-09-27T18:39:35.073Z,18.83
2023-09-27T18:44:37.885Z,18.86
2023-09-27T18:49:40.733Z,18.81
2023-09-27T18:54:45.050Z,18.57
2023-09-27T18:59:48.844Z,18.63
2023-09-27T19:04:51.784Z,18.62
2023-09-27T19:09:56.938Z,18.35
2023-09-27T19:14:59.824Z,18.17
2023-09-27T19:20:06.475Z,18.23
2023-09-27T19:25:11.108Z,18.18
2023-09-27T19:30:16.869Z,18.10
2023-09-27T19:35:19.833Z,18.10
2023-09-27T19:40:24.013Z,18.06
2023-09-27T19:45:26.854Z,17.88
2023-09-27T19:50:29.752Z,17.77
2023-09-27T19:55:33.933Z,17.69
2023-09-27T20:00:36.747Z,17.66
2023-09-27T20:05:39.553Z,17.59
2023-09-27T20:10:44.157Z,17.49
2023-09-27T20:15:47.192Z,17.43
2023-09-27T20:20:50.176Z,17.26
2023-09-27T20:25:54.370Z,17.30
2023-09-27T20:30:57.163Z,17.17
2023-09-27T20:36:00.020Z,17.16
2023-09-27T20:41:04.127Z,17.07
2023-09-27T20:46:14.256Z,17.14
2023-09-27T20:51:17.074Z,17.21
2023-09-27T20:56:21.202Z,17.16
2023-09-27T21:01:31.229Z,17.04
2023-09-27T21:06:34.261Z,17.09
2023-09-27T21:11:38.432Z,17.00
2023-09-27T21:16:41.316Z,16.96
2023-09-27T21:21:44.113Z,16.87
2023-09-27T21:26:48.268Z,16.82
2023-09-27T21:31:51.185Z,16.76
2023-09-27T21:36:54.002Z,16.68
2023-09-27T21:41:58.143Z,16.67
2023-09-27T21:47:00.912Z,16.43
2023-09-27T21:52:03.928Z,16.46
2023-09-27T21:57:08.037Z,16.47
2023-09-27T22:02:12.486Z,16.38
2023-09-27T22:07:15.411Z,16.31
2023-09-27T22:12:22.711Z,16.12
2023-09-27T22:17:25.671Z,16.14
2023-09-27T22:22:28.558Z,16.08
2023-09-27T22:27:34.229Z,16.06
2023-09-27T22:32:39.851Z,16.16
2023-09-27T22:37:45.131Z,15.97
2023-09-27T22:42:50.284Z,15.85
2023-09-27T22:47:53.042Z,16.03
2023-09-27T22:52:56.758Z,16.00
2023-09-27T22:58:00.891Z,16.01
2023-09-27T23:03:04.821Z,16.03
2023-09-27T23:08:10.868Z,16.00
2023-09-27T23:13:35.924Z,16.03
2023-09-27T23:18:38.810Z,15.99
2023-09-27T23:23:47.543Z,15.90
2023-09-27T23:29:13.142Z,15.91
2023-09-27T23:34:15.968Z,15.97
2023-09-27T23:39:22.810Z,15.97
2023-09-27T23:44:29.411Z,15.95
2023-09-27T23:49:32.192Z,15.91
2023-09-27T23:54:35.900Z,15.86
2023-09-27T23:59:41.945Z,15.79
